Tropical Cyclones
[Index]
Main Index Home Page Stock Weather Photos Extreme Storms Discussion Storm News and Storm Chasing Reports Tropical Cyclones / Hurricanes / Typhoons Weather Data and Links Wild Fires / Bushfires Weather Observation Techniques Weather Picture Catalogue Tornado Pictures and Reports Stock Video Footage and DVDs for sale
Season 2002-2003 Tropical Cyclone JAPHET Track Map
Season 2002-2003 Summaries: [BoM-AU] [JTWC-AU] [JTWC-SIO] [JTWC-SPAC] [JTWC-SH]
<<- Previous TC | JTWC 2002-2003 Season | Next TC ->>

click for intensity scale information  Lat/long Grid: Show Hide

 Date Labels: Show Hide

Joint Typhoon Warning Centre Cyclone Data

Name: JAPHET

24 Feb 2003 12:00 UTC to 04 Mar 2003 00:00 UTC

    date/time    lat    long     hPa   cat  kts
2003-02-24 12   21.4    42.3    1004         20          
2003-02-24 18   21.2    42.6    1004         20          
2003-02-25 00   21.4    42.9    1004         20          
2003-02-25 06   21.7    42.8    1002         25          
2003-02-25 12   22.1    42.7    1002         25          
2003-02-25 18   22.4    42.4    1004         25          
2003-02-26 00   22.3    41.5    1000         30          
2003-02-26 06   21.9    40.4    1000         30          
2003-02-26 12   21.6    39.8     997         35          
2003-02-26 18   21.5    39.5     991    1    45          
2003-02-27 00   21.4    39.2     991    1    45          
2003-02-27 06   21.6    38.9     984    2    55          
2003-02-27 12   21.9    38.7     976    2    65          
2003-02-27 18   22.2    38.4     972    2    70          
2003-02-28 00   22.5    38.0     967    3    75          
2003-02-28 06   22.9    37.8     967    3    75          
2003-02-28 12   23.2    37.6     958    3    85          
2003-02-28 18   23.7    37.4     944    4   100          
2003-03-01 00   23.9    37.6     927    4   115          
2003-03-01 06   23.8    37.7     927    4   115          
2003-03-01 12   23.6    37.6     927    4   115          
2003-03-01 18   23.3    37.3     927    4   115          
2003-03-02 00   23.0    36.9     944    4   105          
2003-03-02 06   22.6    36.4     949    3    95          
2003-03-02 12   22.1    35.7     954    3    90          
2003-03-02 18   21.7    35.1     958    3    85          
2003-03-03 00   21.3    34.7     976    2    65          
2003-03-03 06   20.9    34.2     976    2    65          
2003-03-03 12   20.8    33.4     980    2    60          
2003-03-03 18   20.3    32.9     984    2    55          
2003-03-04 00   19.8    32.5     984    2    55          
Winds are 1-min average.

Tropical cyclone tracks developed by Michael Bath using data from the Joint Typhoon Warning Centre Best Tracks and Google Maps.


[Australian Severe Weather index] [Copyright Notice] [Email Contacts] [Search This Site] [Privacy Policy]
Document: tropical_cyclone_japhet.htm Updated: 28 June 2017